Details From RJBB - Kansai Intl
To RJCO - Sapporo
Flight Number -
Tags Standard
Created
Modified
Stats Distance 639 nm / 1,184 km
Max Altitude 0 ft / 0 m
Waypoints 7
Social Downloads 8
Likes 0
Share

Download

Looking for another format? Having issues loading an existing format? Contact us
Advertisement - Login to hide

Notes

None

Route

RJBB +34.33_+135.09 +34.44_+134.98 GTC53 MIS39 +42.80_+141.80 RJCO

ID Type Via Altitude (ft/m) Position (lat/lon) Dist (leg/tot) Name
O RJBB APT - 0 / 0 34.41738 / 135.22928 - / 0 nm
+34.33_+135.09 DME - 0 / 0 34.32595 / 135.09334 8 / 8 nm
+34.44_+134.98 DME - 0 / 0 34.43816 / 134.97868 8 / 17 nm
GTC53 FIX - 0 / 0 37.22260 / 137.18446 198 / 216 nm
MIS39 FIX - 0 / 0 40.22456 / 139.51726 210 / 427 nm
+42.80_+141.80 DME - 0 / 0 42.80379 / 141.80452 185 / 612 nm
O RJCO APT - 0 / 0 43.11172 / 141.38625 26 / 639 nm

Altitude Profile

Advertisement - Login to hide

Weather


0- 5 10 15 20 25 30 35+ Temperature / °C

Clouds and Precipitation
Forecast for 2020-10-26 06:00 UTC. Updated an hour ago

Ground ~20,000 ft ~40,000 ft Winds

RJBB

Details ICAO RJBB (KIX)
Name Kansai Intl
Region Japan
Timezone Asia/Tokyo (UTC+9.0)
Stats Elevation 17 ft / 5 m (AMSL)
Location 34.433600° 135.234000°
Runways 2
Magnetic Variation 7.777° W

METAR

RJBB 260430Z 30004KT 240V330 9999 FEW030 19/10 Q1017 NOSIG

Decode

TAF

TAF TAF AMD RJBB 260202Z 2602/2706 28005KT 9999 FEW035 BECMG 2609/2611 03013KT BECMG 2703/2706 31005KT

Decode

Departure Runways

ID Width Length Bearing (true/mag) Surface Threshold Overrun Markings Lighting
06L 197 ft / 60 m 13,135 ft / 4,004 m 50.85° / 58.63° ASPHALT 0 ft / 0 m 187 ft / 57 m PREC-APP CENTERLINE EDGE THRESHOLD ALSF-II TDZ
06R 197 ft / 60 m 11,493 ft / 3,503 m 50.87° / 58.64° ASPHALT 0 ft / 0 m 187 ft / 57 m PREC-APP CENTERLINE EDGE THRESHOLD ALSF-II TDZ
24L 197 ft / 60 m 11,493 ft / 3,503 m 230.88° / 238.66° ASPHALT 0 ft / 0 m 180 ft / 55 m PREC-APP CENTERLINE EDGE THRESHOLD ALSF-II TDZ
24R 197 ft / 60 m 13,135 ft / 4,004 m 230.87° / 238.64° ASPHALT 0 ft / 0 m 184 ft / 56 m PREC-APP CENTERLINE EDGE THRESHOLD ALSF-II TDZ

RJCO

Details ICAO RJCO (OKD)
Name Sapporo
Region Japan
Timezone Asia/Tokyo (UTC+9.0)
Stats Elevation 26 ft / 8 m (AMSL)
Location 43.117400° 141.381000°
Runways 1
Magnetic Variation 9.664° W

METAR

RJCO 260400Z 36011KT 9999 FEW015 BKN050 13/08 Q1013

Decode

TAF

Not found

Destination Runways

ID Width Length Bearing (true/mag) Surface Threshold Overrun Markings Lighting
14 148 ft / 45 m 4,940 ft / 1,506 m 134.92° / 144.58° ASPHALT 0 ft / 0 m 180 ft / 55 m PREC-APP CENTERLINE EDGE THRESHOLD REIL-OMNI
32 148 ft / 45 m 4,940 ft / 1,506 m 314.93° / 324.59° ASPHALT 0 ft / 0 m 180 ft / 55 m PREC-APP CENTERLINE EDGE THRESHOLD REIL-OMNI

Popular Alternatives